Time;durP1;ratioP1;P1;durP2;ratioP2;P2;SDS_P1;SDS_P2;PMS_P1;PMS_P2;Temp;Humidity;BMP_temperature;BMP_pressure;BME280_temperature;BME280_humidity;BME280_pressure;Samples;Min_cycle;Max_cycle;Signal;HPM_P1;HPM_P2
2022/08/24 00:00:20;;;;;;;5.45;1.72;;;;;;;20.82;100.00;99900.67;1763985;80;21103;-52
2022/08/24 00:02:48;;;;;;;4.47;1.30;;;;;;;20.80;100.00;99908.14;1768809;79;21059;-52
2022/08/24 00:05:16;;;;;;;3.12;1.80;;;;;;;20.78;100.00;99901.93;1768150;80;21031;-52
2022/08/24 00:07:44;;;;;;;3.85;1.50;;;;;;;20.76;100.00;99912.14;1770462;79;21239;-53
2022/08/24 00:10:12;;;;;;;6.45;1.80;;;;;;;20.73;100.00;99914.66;1774801;80;21498;-52
2022/08/24 00:12:39;;;;;;;9.43;1.92;;;;;;;20.72;100.00;99907.95;1770565;80;20950;-53
2022/08/24 00:15:07;;;;;;;5.42;1.40;;;;;;;20.68;100.00;99914.17;1772921;80;20902;-52
2022/08/24 00:17:34;;;;;;;7.55;2.25;;;;;;;20.67;100.00;99907.50;1770221;78;21755;-52
2022/08/24 00:20:01;;;;;;;4.65;1.57;;;;;;;20.65;100.00;99920.44;1774769;78;21084;-52
2022/08/24 00:22:27;;;;;;;6.62;1.65;;;;;;;20.62;100.00;99920.19;1773202;78;21365;-52
2022/08/24 00:24:55;;;;;;;5.35;1.40;;;;;;;20.60;100.00;99922.69;1765689;79;21109;-52
2022/08/24 00:27:21;;;;;;;5.97;1.60;;;;;;;20.59;100.00;99929.15;1762776;79;21052;-52
2022/08/24 00:29:48;;;;;;;2.72;2.27;;;;;;;20.57;100.00;99928.44;1773096;79;21421;-52
2022/08/24 00:32:15;;;;;;;3.08;1.45;;;;;;;20.54;100.00;99929.56;1765230;79;21098;-52
2022/08/24 00:34:41;;;;;;;2.67;2.00;;;;;;;20.54;100.00;99925.96;1758362;79;20944;-52
2022/08/24 00:37:07;;;;;;;5.40;1.90;;;;;;;20.52;100.00;99930.19;1757680;79;21589;-52
2022/08/24 00:39:35;;;;;;;3.15;2.02;;;;;;;20.49;100.00;99932.34;1769715;79;21507;-52
2022/08/24 00:42:02;;;;;;;9.23;2.00;;;;;;;20.46;100.00;99927.13;1728613;81;20994;-53
2022/08/24 00:44:29;;;;;;;8.20;2.05;;;;;;;20.43;100.00;99935.08;1726794;81;21862;-52
2022/08/24 00:47:01;;;;;;;3.12;1.85;;;;;;;20.41;100.00;99932.14;1698411;82;21394;-52
2022/08/24 00:49:42;;;;;;;9.85;2.67;;;;;;;20.37;100.00;99929.66;1679618;82;21118;-53
2022/08/24 00:52:24;;;;;;;3.15;1.70;;;;;;;20.36;100.00;99931.14;1694350;82;21010;-52
2022/08/24 00:54:55;;;;;;;6.85;2.02;;;;;;;20.35;100.00;99923.44;1727008;81;21066;-52
2022/08/24 00:57:27;;;;;;;6.25;2.45;;;;;;;20.33;100.00;99928.13;1732552;81;21212;-52
2022/08/24 00:59:59;;;;;;;3.35;1.62;;;;;;;20.31;100.00;99924.69;1724206;81;21569;-52
2022/08/24 01:02:30;;;;;;;3.52;1.70;;;;;;;20.30;100.00;99928.41;1704476;82;21400;-52
2022/08/24 01:05:01;;;;;;;5.62;1.50;;;;;;;20.28;100.00;99925.44;1699363;82;21465;-52
2022/08/24 01:07:29;;;;;;;3.50;2.30;;;;;;;20.27;100.00;99931.41;1724760;81;21056;-52
2022/08/24 01:09:59;;;;;;;2.40;1.40;;;;;;;20.25;100.00;99937.48;1725371;82;21192;-53
2022/08/24 01:12:27;;;;;;;3.42;1.65;;;;;;;20.22;100.00;99928.20;1717597;81;22433;-53
2022/08/24 01:14:55;;;;;;;1.98;1.62;;;;;;;20.20;100.00;99932.92;1697211;82;21447;-53
2022/08/24 01:20:08;;;;;;;4.40;1.12;;;;;;;20.16;100.00;99934.17;1723841;81;21034;-53
2022/08/24 01:23:06;;;;;;;2.27;1.72;;;;;;;20.13;100.00;99931.72;1728309;81;21553;-52
2022/08/24 01:25:34;;;;;;;5.92;1.45;;;;;;;20.09;100.00;99924.77;1681009;83;21055;-51
2022/08/24 01:28:12;;;;;;;1.95;1.57;;;;;;;20.06;100.00;99933.73;1681905;83;21066;-52
2022/08/24 01:30:38;;;;;;;7.65;2.17;;;;;;;20.05;100.00;99931.50;1720172;81;22341;-53
2022/08/24 01:33:07;;;;;;;3.60;1.42;;;;;;;20.03;100.00;99936.22;1695145;83;21050;-52
2022/08/24 01:35:35;;;;;;;5.90;2.02;;;;;;;20.01;100.00;99939.08;1697909;82;21615;-52
2022/08/24 01:38:06;;;;;;;3.35;1.10;;;;;;;20.00;100.00;99942.80;1695307;83;21574;-52
2022/08/24 01:40:47;;;;;;;3.65;1.35;;;;;;;19.98;100.00;99948.05;1724468;81;21113;-52
2022/08/24 01:43:15;;;;;;;1.50;1.40;;;;;;;19.96;100.00;99951.40;1704418;82;21137;-53
2022/08/24 01:45:41;;;;;;;2.22;1.30;;;;;;;19.93;100.00;99948.91;1726566;81;21451;-52
2022/08/24 01:48:09;;;;;;;2.52;1.20;;;;;;;19.91;100.00;99948.16;1733459;81;21121;-53
2022/08/24 01:50:35;;;;;;;5.05;1.30;;;;;;;19.90;100.00;99947.83;1698931;83;22334;-52
2022/08/24 01:53:04;;;;;;;2.45;1.20;;;;;;;19.89;100.00;99948.33;1725666;81;21031;-52
2022/08/24 01:55:31;;;;;;;3.00;1.47;;;;;;;19.87;100.00;99953.53;1699182;83;21455;-52
2022/08/24 01:57:58;;;;;;;4.37;1.30;;;;;;;19.87;100.00;99953.53;1729693;81;21530;-53
2022/08/24 02:00:24;;;;;;;3.45;1.45;;;;;;;19.86;100.00;99952.66;1686231;82;21180;-52
2022/08/24 02:02:51;;;;;;;4.72;1.57;;;;;;;19.86;100.00;99954.52;1767539;79;22169;-53
2022/08/24 02:05:18;;;;;;;6.00;1.52;;;;;;;19.85;100.00;99956.88;1766910;79;21025;-52
2022/08/24 02:07:45;;;;;;;4.22;1.32;;;;;;;19.85;100.00;99959.61;1723302;81;21422;-53
2022/08/24 02:10:13;;;;;;;4.35;1.10;;;;;;;19.84;100.00;99960.61;1728419;81;21519;-53
2022/08/24 02:12:41;;;;;;;3.52;1.17;;;;;;;19.83;100.00;99956.13;1704205;81;21730;-52
2022/08/24 02:15:09;;;;;;;4.17;1.60;;;;;;;19.81;100.00;99954.92;1702832;83;21083;-52
2022/08/24 02:17:36;;;;;;;5.05;1.07;;;;;;;19.80;100.00;99955.91;1684758;83;21109;-53
2022/08/24 02:20:04;;;;;;;5.65;1.10;;;;;;;19.80;100.00;99952.31;1706448;81;21038;-52
2022/08/24 02:22:31;;;;;;;4.08;1.20;;;;;;;19.79;100.00;99956.91;1707145;81;21096;-53
2022/08/24 02:24:57;;;;;;;1.50;1.05;;;;;;;19.79;100.00;99956.03;1704580;83;21173;-53
2022/08/24 02:27:24;;;;;;;4.40;1.42;;;;;;;19.78;100.00;99954.30;1746266;80;21049;-53
2022/08/24 02:29:50;;;;;;;4.33;1.50;;;;;;;19.77;100.00;99952.55;1746927;80;21481;-53
2022/08/24 02:32:17;;;;;;;3.22;1.75;;;;;;;19.76;100.00;99949.45;1745848;80;21072;-52
2022/08/24 02:34:45;;;;;;;1.55;1.37;;;;;;;19.74;100.00;99952.30;1748383;80;21061;-52
2022/08/24 02:37:11;;;;;;;3.52;1.30;;;;;;;19.74;100.00;99958.27;1744559;80;22287;-51
2022/08/24 02:39:38;;;;;;;2.47;1.10;;;;;;;19.72;100.00;99954.81;1749870;80;21077;-53
2022/08/24 02:42:06;;;;;;;4.58;1.30;;;;;;;19.71;100.00;99959.91;1749899;80;21583;-52
2022/08/24 02:44:32;;;;;;;2.12;1.22;;;;;;;19.68;100.00;99958.78;1751313;80;21461;-52
2022/08/24 02:46:59;;;;;;;2.95;1.35;;;;;;;19.67;100.00;99958.41;1697257;80;21666;-52
2022/08/24 02:49:26;;;;;;;3.22;1.45;;;;;;;19.67;100.00;99957.04;1750070;80;21878;-51
2022/08/24 02:51:53;;;;;;;5.05;1.87;;;;;;;19.67;100.00;99955.67;1704656;82;20957;-52
2022/08/24 02:54:21;;;;;;;2.45;1.17;;;;;;;19.65;100.00;99950.33;1680897;83;21032;-52
2022/08/24 02:56:49;;;;;;;6.67;1.20;;;;;;;19.63;100.00;99951.85;1705261;82;21159;-52
2022/08/24 02:59:16;;;;;;;1.85;1.32;;;;;;;19.63;100.00;99951.85;1659167;84;21092;-52
2022/08/24 03:01:42;;;;;;;2.40;1.60;;;;;;;19.62;100.00;99957.43;1709968;82;21229;-51
2022/08/24 03:04:09;;;;;;;2.60;1.32;;;;;;;19.60;100.00;99956.19;1708480;82;21361;-53
2022/08/24 03:06:36;;;;;;;7.50;1.30;;;;;;;19.58;100.00;99958.66;1706397;82;21047;-52
2022/08/24 03:09:03;;;;;;;5.10;1.60;;;;;;;19.57;100.00;99966.48;1713316;82;21512;-52
2022/08/24 03:11:29;;;;;;;1.70;1.17;;;;;;;19.55;100.00;99968.00;1714325;82;21325;-53
2022/08/24 03:13:57;;;;;;;2.42;1.67;;;;;;;19.53;100.00;99971.34;1710813;82;21113;-52
2022/08/24 03:16:29;;;;;;;9.95;1.42;;;;;;;19.53;100.00;99973.20;1709891;82;20923;-52
2022/08/24 03:18:56;;;;;;;2.62;1.57;;;;;;;19.51;100.00;99975.18;1704766;82;20918;-52
2022/08/24 03:21:24;;;;;;;5.03;1.57;;;;;;;19.51;100.00;99972.45;1748147;80;20961;-52
2022/08/24 03:23:51;;;;;;;5.10;1.60;;;;;;;19.49;100.00;99974.42;1746999;80;20892;-53
2022/08/24 03:26:17;;;;;;;2.58;1.55;;;;;;;19.45;100.00;99973.80;1771436;79;22119;-52
2022/08/24 03:28:44;;;;;;;2.52;1.20;;;;;;;19.43;100.00;99975.77;1766676;80;20899;-53
2022/08/24 03:31:11;;;;;;;6.60;1.95;;;;;;;19.42;100.00;99974.03;1763035;79;20897;-51
2022/08/24 03:33:39;;;;;;;2.33;1.30;;;;;;;19.41;100.00;99979.61;1770236;79;20978;-52
2022/08/24 03:36:06;;;;;;;5.17;1.72;;;;;;;19.42;100.00;99979.98;1767254;79;21774;-52
2022/08/24 03:38:32;;;;;;;4.00;1.57;;;;;;;19.40;100.00;99980.11;1765237;79;21001;-52
2022/08/24 03:40:59;;;;;;;3.55;1.60;;;;;;;19.41;100.00;99980.48;1764246;79;21062;-53
2022/08/24 03:46:11;;;;;;;2.72;1.47;;;;;;;19.38;100.00;99982.61;1764686;80;21060;-52
2022/08/24 03:48:39;;;;;;;8.05;1.25;;;;;;;19.36;100.00;99983.22;1762341;79;21105;-53
2022/08/24 03:51:17;;;;;;;5.22;1.40;;;;;;;19.33;100.00;99991.16;1758966;80;21211;-52
2022/08/24 03:53:46;;;;;;;4.78;1.37;;;;;;;19.33;100.00;99987.55;1763918;79;20986;-52
2022/08/24 03:56:12;;;;;;;1.40;1.12;;;;;;;19.32;100.00;99994.88;1740363;80;21085;-52
2022/08/24 03:58:40;;;;;;;2.50;1.57;;;;;;;19.33;100.00;99991.64;1762366;79;21031;-51
2022/08/24 04:01:07;;;;;;;6.75;1.40;;;;;;;19.32;100.00;99993.50;1759817;79;21441;-53
2022/08/24 04:03:39;;;;;;;2.35;1.70;;;;;;;19.33;100.00;99988.42;1762386;79;21775;-53
2022/08/24 04:06:07;;;;;;;3.77;1.10;;;;;;;19.40;100.00;99991.52;1763853;79;21070;-52
2022/08/24 04:08:34;;;;;;;1.82;1.27;;;;;;;19.46;100.00;99990.55;1745751;80;21482;-52
2022/08/24 04:11:01;;;;;;;8.03;1.57;;;;;;;19.60;100.00;99993.05;1767522;80;21404;-52
2022/08/24 04:13:31;;;;;;;3.10;1.30;;;;;;;19.81;100.00;99982.73;1745680;80;21127;-52
2022/08/24 04:16:08;;;;;;;2.15;1.10;;;;;;;20.07;100.00;99985.53;1759562;79;22228;-52
2022/08/24 04:18:35;;;;;;;8.08;1.30;;;;;;;20.36;100.00;99985.33;1759757;80;21089;-52
2022/08/24 04:21:01;;;;;;;4.72;1.90;;;;;;;20.67;100.00;99984.92;1765274;79;21108;-52
2022/08/24 04:23:28;;;;;;;3.00;1.40;;;;;;;20.95;100.00;99983.90;1766715;79;21077;-53
2022/08/24 04:25:54;;;;;;;1.32;1.02;;;;;;;21.21;100.00;99977.53;1763143;79;21039;-52
2022/08/24 04:28:22;;;;;;;4.17;1.27;;;;;;;21.46;100.00;99985.30;1766934;79;21080;-52
2022/08/24 04:30:49;;;;;;;4.37;1.00;;;;;;;21.70;100.00;99979.47;1767501;79;21206;-52
2022/08/24 04:33:18;;;;;;;3.22;1.42;;;;;;;21.86;100.00;99983.41;1762505;79;21073;-53
2022/08/24 04:35:46;;;;;;;8.70;1.62;;;;;;;21.92;100.00;99983.88;1769778;79;21081;-52
2022/08/24 04:38:16;;;;;;;1.62;1.37;;;;;;;;;;1763818;79;21097;-53
2022/08/24 04:40:45;;;;;;;3.33;1.15;;;;;;;21.81;100.00;99985.72;1764798;79;21085;-53
2022/08/24 04:43:13;;;;;;;1.60;1.10;;;;;;;21.75;100.00;99983.55;1764531;79;21093;-54
2022/08/24 04:45:45;;;;;;;3.58;1.00;;;;;;;21.67;100.00;99990.72;1762327;80;21054;-54
2022/08/24 04:48:11;;;;;;;3.17;1.30;;;;;;;21.60;100.00;99984.07;1767552;79;21503;-53
2022/08/24 04:50:40;;;;;;;3.05;1.10;;;;;;;21.57;100.00;99979.73;1760047;80;21097;-54
2022/08/24 04:53:06;;;;;;;0.90;0.80;;;;;;;21.55;100.00;99983.09;1762044;80;21111;-54
2022/08/24 04:55:42;;;;;;;1.90;0.90;;;;;;;21.52;100.00;99977.38;1763197;79;21042;-54
2022/08/24 04:58:10;;;;;;;4.87;1.62;;;;;;;21.50;100.00;99976.68;1764387;79;21026;-54
2022/08/24 05:00:37;;;;;;;1.45;0.90;;;;;;;21.50;100.00;99981.29;1769071;79;20994;-54
2022/08/24 05:03:04;;;;;;;5.55;1.00;;;;;;;21.46;100.00;99974.34;1766860;79;21663;-54
2022/08/24 05:05:31;;;;;;;1.60;1.20;;;;;;;21.42;100.00;99975.63;1682466;83;21129;-54
2022/08/24 05:07:58;;;;;;;3.90;0.90;;;;;;;21.41;100.00;99974.77;1728883;81;21071;-54
2022/08/24 05:10:25;;;;;;;2.50;1.35;;;;;;;21.38;100.00;99979.14;1704528;82;21338;-54
2022/08/24 05:12:51;;;;;;;2.87;0.80;;;;;;;21.38;100.00;99976.40;1709961;81;21595;-54
2022/08/24 05:15:18;;;;;;;5.12;1.47;;;;;;;21.42;100.00;99973.77;1705501;82;21087;-52
2022/08/24 05:17:45;;;;;;;1.40;0.90;;;;;;;21.44;100.00;99974.47;1703920;82;21545;-53
2022/08/24 05:20:11;;;;;;;1.45;0.95;;;;;;;21.47;100.00;99975.58;1704621;81;21497;-52
2022/08/24 05:22:38;;;;;;;2.25;0.95;;;;;;;21.50;100.00;99985.40;1708470;82;21073;-53
2022/08/24 05:25:05;;;;;;;14.98;2.12;;;;;;;21.56;100.00;99984.84;1707794;82;21118;-51
2022/08/24 05:27:33;;;;;;;39.05;9.63;;;;;;;21.63;100.00;99986.01;1734144;81;21097;-53
2022/08/24 05:30:00;;;;;;;7.85;1.00;;;;;;;21.65;100.00;99972.18;1711964;81;22247;-53
2022/08/24 05:32:26;;;;;;;6.05;1.75;;;;;;;21.67;100.00;99979.77;1728526;81;21061;-51
2022/08/24 05:34:53;;;;;;;4.05;0.78;;;;;;;21.70;100.00;99980.34;1719704;81;21253;-51
2022/08/24 05:37:20;;;;;;;2.02;1.02;;;;;;;21.74;100.00;99983.17;1731401;81;21095;-51
2022/08/24 05:40:07;;;;;;;5.65;0.80;;;;;;;21.77;100.00;99978.80;1728244;81;21112;-53
2022/08/24 05:42:34;;;;;;;3.20;0.85;;;;;;;21.83;100.00;99979.60;1730297;81;21099;-52
2022/08/24 05:45:02;;;;;;;4.37;0.80;;;;;;;21.89;100.00;99985.02;1712591;81;21055;-51
2022/08/24 05:47:29;;;;;;;1.65;0.90;;;;;;;21.95;100.00;99983.61;1728867;81;21068;-51
2022/08/24 05:49:57;;;;;;;4.33;1.12;;;;;;;21.98;100.00;99980.59;1688889;81;21437;-52
2022/08/24 05:52:23;;;;;;;2.92;0.80;;;;;;;22.00;100.00;99982.70;1709391;81;21717;-53
2022/08/24 05:54:52;;;;;;;1.25;0.80;;;;;;;22.01;100.00;99980.33;1714288;81;22667;-52
2022/08/24 05:57:19;;;;;;;6.53;0.85;;;;;;;22.02;100.00;99984.80;1711425;82;21472;-53
2022/08/24 05:59:50;;;;;;;1.52;0.80;;;;;;;22.02;100.00;99977.95;1761706;79;20859;-52
2022/08/24 06:02:17;;;;;;;6.10;0.95;;;;;;;22.02;100.00;99989.78;1763929;79;20930;-50
2022/08/24 06:04:45;;;;;;;7.03;0.90;;;;;;;22.06;100.00;99995.33;1767249;79;20942;-53
2022/08/24 06:07:12;;;;;;;6.53;0.88;;;;;;;22.12;100.00;99994.75;1767244;79;21374;-54
2022/08/24 06:09:40;;;;;;;1.42;0.80;;;;;;;22.18;100.00;99990.60;1768383;79;20953;-52
2022/08/24 06:12:10;;;;;;;2.58;0.70;;;;;;;22.24;100.00;99991.39;1763577;79;20926;-51
2022/08/24 06:14:37;;;;;;;1.77;0.70;;;;;;;22.29;100.00;99990.98;1768865;79;20895;-52
2022/08/24 06:17:06;;;;;;;2.00;1.05;;;;;;;22.34;100.00;99995.02;1765698;79;20927;-53
2022/08/24 06:19:32;;;;;;;1.40;0.80;;;;;;;22.39;100.00;99998.19;1761894;79;21111;-51
2022/08/24 06:22:00;;;;;;;3.80;1.07;;;;;;;22.44;100.00;99996.41;1762385;79;20915;-52
2022/08/24 06:27:22;;;;;;;;;;;;;;;22.55;100.00;100002.59;1749146;80;21559;-52
2022/08/24 06:29:57;;;;;;;2.22;0.93;;;;;;;22.61;100.00;100003.41;1762702;80;20211;-52
2022/08/24 06:32:28;;;;;;;10.10;1.02;;;;;;;22.68;100.00;100003.70;1750357;79;22338;-52
2022/08/24 06:34:55;;;;;;;8.73;0.88;;;;;;;22.74;100.00;100009.09;1765622;79;21014;-51
2022/08/24 06:37:25;;;;;;;5.40;0.90;;;;;;;22.78;100.00;100005.09;1766333;80;21017;-52
2022/08/24 06:39:50;;;;;;;2.02;0.70;;;;;;;22.85;100.00;100011.23;1764754;79;21049;-50
2022/08/24 06:42:16;;;;;;;3.20;1.02;;;;;;;22.88;100.00;100004.59;1764605;79;22258;-52
2022/08/24 06:44:43;;;;;;;3.85;1.35;;;;;;;22.91;100.00;100007.02;1759977;79;21129;-51
2022/08/24 06:47:12;;;;;;;2.15;0.95;;;;;;;22.96;100.00;100012.45;1758751;79;21103;-52
2022/08/24 06:49:39;;;;;;;4.87;0.90;;;;;;;23.03;100.00;100010.48;1761462;79;21095;-54
2022/08/24 06:52:05;;;;;;;8.15;1.17;;;;;;;23.09;100.00;100009.89;1764638;79;21568;-53
2022/08/24 06:54:32;;;;;;;4.22;0.80;;;;;;;23.16;100.00;100008.28;1764921;79;20957;-54
2022/08/24 06:57:00;;;;;;;4.35;1.07;;;;;;;23.22;100.00;100009.92;1758020;79;21832;-52
2022/08/24 06:59:28;;;;;;;2.05;0.80;;;;;;;23.29;100.00;100006.97;1752388;79;21480;-55
2022/08/24 07:01:55;;;;;;;3.67;1.32;;;;;;;23.32;100.00;100003.90;1765153;79;21038;-53
2022/08/24 07:04:23;;;;;;;4.00;0.88;;;;;;;23.36;100.00;100007.23;1748767;80;21033;-54
2022/08/24 07:07:08;;;;;;;1.62;1.27;;;;;;;23.42;100.00;100011.25;1764556;79;21087;-53
2022/08/24 07:09:35;;;;;;;3.60;0.80;;;;;;;23.47;100.00;100011.69;1763361;79;21140;-54
2022/08/24 07:12:03;;;;;;;4.08;0.98;;;;;;;23.54;100.00;100014.22;1760905;79;21295;-54
2022/08/24 07:14:30;;;;;;;1.10;0.82;;;;;;;23.59;100.00;100009.98;1745601;79;21483;-53
2022/08/24 07:16:57;;;;;;;6.15;1.20;;;;;;;23.66;100.00;100013.86;1748670;80;21109;-54
2022/08/24 07:19:23;;;;;;;4.05;1.17;;;;;;;23.73;100.00;100017.73;1766903;80;22261;-53
2022/08/24 07:21:50;;;;;;;5.55;1.10;;;;;;;23.84;100.00;100021.30;1773606;79;22220;-50
2022/08/24 07:24:17;;;;;;;1.45;0.85;;;;;;;23.92;100.00;100026.91;1760387;80;21066;-51
2022/08/24 07:26:43;;;;;;;4.35;0.80;;;;;;;23.98;100.00;100016.70;1761636;80;21080;-52
2022/08/24 07:29:14;;;;;;;3.12;0.90;;;;;;;24.06;100.00;100027.28;1762539;79;21090;-51
2022/08/24 07:31:42;;;;;;;10.08;1.00;;;;;;;24.11;100.00;100016.67;1763090;79;21108;-51
2022/08/24 07:34:23;;;;;;;4.70;0.90;;;;;;;24.18;100.00;100020.17;1769056;79;22215;-52
2022/08/24 07:36:51;;;;;;;5.22;1.00;;;;;;;24.24;100.00;100026.49;1764116;79;21096;-52
2022/08/24 07:39:18;;;;;;;7.58;1.30;;;;;;;24.29;100.00;100033.76;1768811;79;21026;-54
2022/08/24 07:41:45;;;;;;;8.60;1.00;;;;;;;24.34;100.00;100028.14;1765517;79;21517;-54
2022/08/24 07:44:12;;;;;;;3.83;0.90;;;;;;;24.41;100.00;100029.23;1765915;79;21794;-51
2022/08/24 07:46:39;;;;;;;3.83;1.17;;;;;;;24.49;100.00;100033.48;1767282;79;21841;-52
2022/08/24 07:49:06;;;;;;;6.40;0.95;;;;;;;24.59;100.00;100029.77;1764129;79;20970;-54
2022/08/24 07:51:34;;;;;;;5.72;0.90;;;;;;;24.65;100.00;100028.66;1765037;79;21468;-52
2022/08/24 07:54:01;;;;;;;6.17;1.02;;;;;;;24.73;100.00;100023.73;1762406;79;21076;-52
2022/08/24 07:56:30;;;;;;;8.75;1.10;;;;;;;24.81;100.00;100018.30;1762902;79;21503;-54
2022/08/24 07:58:58;;;;;;;4.58;1.07;;;;;;;24.88;100.00;100015.26;1765406;79;22188;-54
2022/08/24 08:01:25;;;;;;;7.60;1.37;;;;;;;24.94;100.00;100014.64;1766492;79;21107;-52
2022/08/24 08:03:52;;;;;;;10.40;1.20;;;;;;;25.00;100.00;100018.16;1766703;79;21753;-53
2022/08/24 08:06:18;;;;;;;10.20;1.10;;;;;;;25.07;100.00;100016.49;1746982;79;21124;-52
2022/08/24 08:08:46;;;;;;;8.48;1.50;;;;;;;25.15;100.00;100026.20;1764635;79;21090;-51
2022/08/24 08:11:13;;;;;;;11.22;1.20;;;;;;;25.25;100.00;100033.85;1761886;79;21145;-52
2022/08/24 08:13:39;;;;;;;6.03;1.00;;;;;;;25.34;100.00;100034.77;1768028;79;21460;-52
2022/08/24 08:16:06;;;;;;;8.05;1.72;;;;;;;25.43;100.00;100035.19;1766506;79;21100;-54
2022/08/24 08:18:33;;;;;;;7.58;1.57;;;;;;;25.51;100.00;100028.86;1762016;79;21537;-52
2022/08/24 08:24:13;;;;;;;15.83;1.60;;;;;;;25.58;100.00;100034.94;1760378;79;21069;-52
2022/08/24 08:26:20;;;;;;;11.88;1.55;;;;;;;25.77;100.00;100031.11;1769011;79;21002;-52
2022/08/24 08:28:52;;;;;;;15.72;1.15;;;;;;;25.86;100.00;100031.47;1760429;79;21018;-52
2022/08/24 08:31:18;;;;;;;5.22;1.10;;;;;;;25.94;100.00;100038.44;1739333;79;21166;-52
2022/08/24 08:33:45;;;;;;;8.65;1.07;;;;;;;26.02;100.00;100036.74;1772179;79;21528;-53
2022/08/24 08:36:16;;;;;;;7.47;1.10;;;;;;;26.08;100.00;100034.17;1767760;79;21197;-51
2022/08/24 08:38:45;;;;;;;8.20;0.90;;;;;;;26.16;100.00;100027.82;1770254;79;21894;-53
2022/08/24 08:41:41;;;;;;;6.92;0.98;;;;;;;26.23;100.00;100029.73;1773477;79;20950;-51
2022/08/24 08:44:40;;;;;;;8.68;1.00;;;;;;;26.31;100.00;100031.18;1765604;79;21385;-54
2022/08/24 08:48:01;;;;;;;10.80;1.85;;;;;;;26.40;100.00;100035.34;1768545;79;20965;-52
2022/08/24 08:51:06;;;;;;;10.63;1.62;;;;;;;26.47;100.00;100025.34;1772690;79;21852;-52
2022/08/24 08:53:54;;;;;;;13.83;1.17;;;;;;;26.56;100.00;100023.81;1765960;79;21076;-51
2022/08/24 08:56:51;;;;;;;12.13;1.05;;;;;;;26.65;100.00;100021.94;1775011;79;21382;-56
2022/08/24 08:59:55;;;;;;;10.43;0.90;;;;;;;26.77;100.00;100021.97;1771159;79;20887;-52
2022/08/24 09:03:08;;;;;;;14.50;1.27;;;;;;;26.90;100.00;100018.16;1774883;79;20914;-53
2022/08/24 09:06:08;;;;;;;10.82;1.00;;;;;;;27.02;100.00;100013.20;1767946;79;21083;-54
2022/08/24 09:08:53;;;;;;;8.78;0.90;;;;;;;27.15;100.00;100016.80;1765445;79;20926;-51
2022/08/24 09:11:59;;;;;;;5.87;1.10;;;;;;;27.26;100.00;100015.94;1765314;79;21077;-53
2022/08/24 09:15:06;;;;;;;9.30;1.00;;;;;;;27.39;100.00;100018.19;1773839;79;21072;-54
2022/08/24 09:18:15;;;;;;;10.75;1.20;;;;;;;27.49;100.00;100014.69;1773975;80;21106;-51
2022/08/24 09:20:56;;;;;;;6.35;0.95;;;;;;;27.60;100.00;100012.11;1768025;79;21839;-53
2022/08/24 09:23:49;;;;;;;10.68;0.90;;;;;;;27.70;100.00;100013.64;1768875;79;21042;-52
2022/08/24 09:27:01;;;;;;;6.80;0.80;;;;;;;27.79;100.00;100013.96;1772359;79;21076;-52
2022/08/24 09:29:52;;;;;;;14.50;1.35;;;;;;;27.89;100.00;100013.75;1769817;79;20994;-52
2022/08/24 09:32:34;;;;;;;3.52;0.85;;;;;;;28.00;100.00;100013.86;1767862;79;21074;-52
2022/08/24 09:35:05;;;;;;;7.35;0.90;;;;;;;28.07;100.00;100003.27;1769869;79;21506;-54
2022/08/24 09:37:55;;;;;;;11.53;0.93;;;;;;;28.14;100.00;100007.59;1770480;79;21039;-53
2022/08/24 09:41:02;;;;;;;13.93;0.98;;;;;;;28.20;100.00;100005.51;1766794;79;21074;-53
2022/08/24 09:44:18;;;;;;;5.35;1.00;;;;;;;28.29;100.00;100016.87;1767581;80;21052;-55
2022/08/24 09:47:13;;;;;;;8.03;1.10;;;;;;;28.40;100.00;100010.08;1768613;80;21704;-54
2022/08/24 09:50:12;;;;;;;9.13;1.98;;;;;;;28.51;100.00;100015.18;1765763;79;21126;-52
2022/08/24 09:53:11;;;;;;;6.78;1.52;;;;;;;28.56;100.00;100002.53;1764271;80;21054;-53
2022/08/24 09:56:04;;;;;;;6.35;0.93;;;;;;;28.61;100.00;100002.83;1772182;79;21045;-51
2022/08/24 09:58:59;;;;;;;6.30;0.90;;;;;;;28.67;100.00;100005.92;1771383;79;21076;-51
2022/08/24 10:01:49;;;;;;;9.78;0.70;;;;;;;28.71;100.00;100009.52;1770828;79;21092;-53
2022/08/24 10:04:39;;;;;;;2.40;0.90;;;;;;;28.76;100.00;100002.92;1763076;80;21557;-55
2022/08/24 10:07:48;;;;;;;3.00;0.80;;;;;;;28.82;100.00;100006.36;1770387;79;21035;-52
2022/08/24 10:10:36;;;;;;;3.17;0.70;;;;;;;28.88;100.00;100001.97;1772350;79;21064;-54
2022/08/24 10:13:20;;;;;;;6.30;0.68;;;;;;;28.95;100.00;99990.48;1768511;79;21054;-53
2022/08/24 10:16:10;;;;;;;;;;;;;;;29.02;100.00;99997.52;1772795;79;21066;-53
2022/08/24 10:19:30;;;;;;;4.87;0.70;;;;;;;29.10;100.00;100000.21;1767124;79;21266;-51
2022/08/24 10:22:43;;;;;;;5.25;0.70;;;;;;;29.16;100.00;100004.51;1766520;79;21030;-53
2022/08/24 10:25:30;;;;;;;6.70;0.65;;;;;;;29.23;100.00;100005.47;1764744;79;21652;-53
2022/08/24 10:28:23;;;;;;;9.58;0.90;;;;;;;29.30;100.00;100006.96;1766416;79;21063;-54
2022/08/24 10:31:04;;;;;;;1.45;0.68;;;;;;;29.35;100.00;100012.30;1750648;79;21564;-52
2022/08/24 10:34:20;;;;;;;6.50;1.70;;;;;;;29.40;100.00;100010.37;1765650;79;21126;-55
2022/08/24 10:37:04;;;;;;;10.68;4.35;;;;;;;29.45;100.00;100011.17;1763403;79;21090;-53
2022/08/24 10:41:35;;;;;;;2.00;0.70;;;;;;;29.55;100.00;100011.77;1788663;78;22614;-52
2022/08/24 10:44:41;;;;;;;8.70;0.90;;;;;;;29.53;100.00;100007.79;1765902;79;21548;-53
2022/08/24 10:47:21;;;;;;;5.65;0.95;;;;;;;29.55;100.00;100011.77;1709407;81;21268;-51
2022/08/24 10:50:11;;;;;;;5.87;0.80;;;;;;;29.58;100.00;100008.62;1709076;82;21020;-55
2022/08/24 10:52:56;;;;;;;5.03;0.80;;;;;;;29.60;100.00;100008.74;1710624;82;21015;-52
2022/08/24 10:55:26;;;;;;;3.87;0.60;;;;;;;29.63;100.00;100005.60;1705557;82;21476;-53
2022/08/24 10:58:04;;;;;;;4.17;0.80;;;;;;;29.69;100.00;100000.67;1707632;81;21488;-53
2022/08/24 11:00:31;;;;;;;10.80;1.40;;;;;;;29.74;100.00;99998.73;1684327;84;21654;-51
2022/08/24 11:03:25;;;;;;;5.65;0.90;;;;;;;29.79;100.00;100000.39;1686865;82;20979;-53
2022/08/24 11:05:53;;;;;;;4.80;0.60;;;;;;;29.81;100.00;100004.36;1685915;84;21320;-52
2022/08/24 11:08:32;;;;;;;5.83;0.75;;;;;;;29.83;100.00;99993.41;1687955;84;21052;-53
2022/08/24 11:11:09;;;;;;;8.50;1.00;;;;;;;29.85;100.00;99996.88;1683924;82;22260;-54
2022/08/24 11:13:37;;;;;;;2.52;0.60;;;;;;;29.88;100.00;99993.69;1682853;83;21151;-53
2022/08/24 11:16:04;;;;;;;5.62;0.68;;;;;;;29.92;100.00;99993.66;1689255;83;21167;-53
2022/08/24 11:18:53;;;;;;;10.40;1.47;;;;;;;29.97;100.00;99991.70;1689947;83;21749;-53
2022/08/24 11:21:44;;;;;;;3.92;0.70;;;;;;;30.02;100.00;99985.06;1685685;84;21591;-52
2022/08/24 11:24:22;;;;;;;2.12;0.60;;;;;;;30.05;100.00;99990.21;1693658;84;21113;-52
2022/08/24 11:27:18;;;;;;;9.38;0.75;;;;;;;30.07;100.00;99990.88;1657336;84;21603;-53
2022/08/24 11:29:54;;;;;;;3.47;0.72;;;;;;;30.11;100.00;99989.98;1688016;84;21149;-53
2022/08/24 11:32:45;;;;;;;3.20;0.68;;;;;;;30.15;100.00;99990.77;1689686;84;20962;-53
2022/08/24 11:35:34;;;;;;;7.08;0.70;;;;;;;30.19;100.00;99986.57;1682803;84;20987;-54
2022/08/24 11:38:22;;;;;;;5.80;0.60;;;;;;;30.22;100.00;99977.83;1687665;84;21308;-51
2022/08/24 11:41:13;;;;;;;4.65;0.60;;;;;;;30.25;100.00;99981.62;1667139;83;21671;-53
2022/08/24 11:44:03;;;;;;;5.22;0.70;;;;;;;30.30;100.00;99986.57;1697967;81;20962;-52
2022/08/24 11:46:45;;;;;;;3.45;0.50;;;;;;;30.33;100.00;99979.25;1651965;85;21451;-53
2022/08/24 11:49:34;;;;;;;8.15;0.70;;;;;;;30.36;100.00;99983.03;1646530;85;20967;-52
2022/08/24 11:52:12;;;;;;;6.60;1.12;;;;;;;30.38;100.00;99977.59;1723011;81;20927;-54
2022/08/24 11:55:04;;;;;;;10.08;0.70;;;;;;;30.40;100.00;99963.52;1721311;81;21800;-53
2022/08/24 11:57:42;;;;;;;9.93;0.80;;;;;;;30.39;100.00;99963.19;1718412;81;20950;-53
2022/08/24 12:00:14;;;;;;;5.47;0.50;;;;;;;30.40;100.00;99963.52;1720686;81;20919;-53
2022/08/24 12:03:01;;;;;;;5.45;0.60;;;;;;;30.43;100.00;99961.75;1724381;81;21644;-53
2022/08/24 12:06:11;;;;;;;4.03;0.50;;;;;;;30.45;100.00;99955.48;1687763;81;21042;-52